Hiawassee, Florida
Current Conditions -  °F | °C
As of 2:53 PM on Sunday 21 Dec 2014 (Local Time) from KORL Reporting Station
Few Clouds Few Clouds  
Wind Chill: 77°   Ceiling: Unl
Heat Index: 79°   Visibility: 10mi
Dew Point: 62°   Wind: 8mph
Humidity: 60%   Direction: 210°SSW
Pressure: 30.02"   Gusts: NA
Location:  28.5867°N, 81.4891°W
Report Text: KORL 211953Z 21007KT 10SM FEW120 25/17 A3002 RMK AO2 SLP168 T02500167
Loading
Personal Weather Stations






























Interactive Weather Map New forecast layout! Learn more

10-Day Weather Forecast

Advertisements
Track Severe Weather on mobile